Time;durP1;ratioP1;P1;durP2;ratioP2;P2;SDS_P1;SDS_P2;PMS_P1;PMS_P2;Temp;Humidity;BMP_temperature;BMP_pressure;BME280_temperature;BME280_humidity;BME280_pressure;Samples;Min_cycle;Max_cycle;Signal;HPM_P1;HPM_P2
2023/08/07 00:00:26;;;;;;;1.02;0.95;;;;;;;12.30;85.41;96390.91;4844327;29;20053;-78
2023/08/07 00:02:54;;;;;;;2.03;0.70;;;;;;;12.26;84.65;96384.44;4843949;29;20057;-78
2023/08/07 00:05:22;;;;;;;1.58;0.80;;;;;;;12.23;84.79;96395.31;4844197;29;20050;-79
2023/08/07 00:07:49;;;;;;;1.80;0.90;;;;;;;12.21;85.25;96392.88;4844048;29;20058;-79
2023/08/07 00:10:17;;;;;;;0.68;0.68;;;;;;;12.20;85.69;96388.66;4843995;29;20053;-78
2023/08/07 00:12:45;;;;;;;1.27;0.77;;;;;;;12.20;85.08;96391.28;4844255;29;20062;-78
2023/08/07 00:15:13;;;;;;;1.27;0.80;;;;;;;12.20;85.08;96403.53;4844022;29;20149;-78
2023/08/07 00:17:42;;;;;;;0.80;0.80;;;;;;;12.20;84.71;96406.16;4844120;29;20081;-78
2023/08/07 00:20:10;;;;;;;1.48;1.10;;;;;;;12.18;84.74;96398.50;4843891;29;20053;-78
2023/08/07 00:22:37;;;;;;;2.95;1.35;;;;;;;12.18;84.38;96395.06;4843725;29;20058;-78
2023/08/07 00:25:06;;;;;;;1.20;0.70;;;;;;;12.15;84.30;96404.13;4843761;29;20149;-78
2023/08/07 00:27:33;;;;;;;2.65;1.25;;;;;;;12.11;84.15;96401.09;4843850;29;20054;-78
2023/08/07 00:30:01;;;;;;;1.73;1.08;;;;;;;12.09;84.58;96391.81;4843744;29;20466;-78
2023/08/07 00:32:28;;;;;;;6.40;1.92;;;;;;;12.09;85.21;96399.66;4844138;29;20131;-78
2023/08/07 00:34:57;;;;;;;1.95;1.30;;;;;;;12.08;85.26;96403.31;4843482;29;20050;-78
2023/08/07 00:37:25;;;;;;;1.90;1.48;;;;;;;12.11;85.39;96397.66;4843623;29;20111;-78
2023/08/07 00:39:53;;;;;;;1.95;1.05;;;;;;;12.11;85.51;96382.81;4843268;29;20106;-79
2023/08/07 00:42:20;;;;;;;2.08;1.25;;;;;;;12.13;85.57;96390.44;4843491;29;20092;-79
2023/08/07 00:44:48;;;;;;;4.63;1.67;;;;;;;12.13;85.58;96388.66;4843633;29;20081;-79
2023/08/07 00:47:15;;;;;;;1.95;1.27;;;;;;;12.10;85.02;96401.31;4843449;29;20576;-78
2023/08/07 00:49:43;;;;;;;1.77;1.33;;;;;;;12.08;84.99;96393.66;4843339;29;20057;-78
2023/08/07 00:52:13;;;;;;;2.45;1.35;;;;;;;12.04;85.06;96400.25;4842912;29;20050;-79
2023/08/07 00:54:40;;;;;;;2.58;1.13;;;;;;;12.03;84.74;96400.47;4843569;29;20406;-77
2023/08/07 00:57:12;;;;;;;1.73;1.38;;;;;;;12.00;85.50;96409.50;4843288;29;20473;-79
2023/08/07 00:59:40;;;;;;;1.85;1.38;;;;;;;11.95;84.71;96407.47;4843620;29;20058;-78
2023/08/07 01:02:09;;;;;;;2.33;1.30;;;;;;;11.91;84.53;96414.06;4859024;29;20053;-79
2023/08/07 01:04:37;;;;;;;2.40;1.27;;;;;;;11.86;84.52;96416.44;4856887;29;20069;-78
2023/08/07 01:07:05;;;;;;;4.03;1.98;;;;;;;11.83;84.85;96418.63;4858647;29;20053;-78
2023/08/07 01:09:34;;;;;;;1.48;1.30;;;;;;;11.81;85.19;96420.66;4851225;29;20057;-79
2023/08/07 01:12:11;;;;;;;2.25;1.38;;;;;;;11.81;85.35;96418.84;4845137;29;20136;-79
2023/08/07 01:14:50;;;;;;;3.80;1.35;;;;;;;11.83;85.66;96411.63;4843764;29;20086;-78
2023/08/07 01:17:21;;;;;;;2.70;1.27;;;;;;;11.86;84.93;96416.44;4843889;29;20058;-79
2023/08/07 01:19:51;;;;;;;2.63;1.55;;;;;;;11.84;84.36;96422.88;4843544;29;20505;-78
2023/08/07 01:22:20;;;;;;;5.03;1.88;;;;;;;11.85;84.49;96435.75;4843144;29;20058;-78
2023/08/07 01:24:49;;;;;;;1.48;1.30;;;;;;;11.82;84.01;96430.91;4843170;29;20054;-78
2023/08/07 01:27:42;;;;;;;4.88;1.83;;;;;;;11.82;86.23;96417.03;4842936;29;20180;-78
2023/08/07 01:30:13;;;;;;;;;;;;;;;11.82;86.12;96428.28;4839863;29;20086;-78
2023/08/07 01:32:48;;;;;;;3.15;1.60;;;;;;;11.82;84.75;96427.47;4842603;29;19947;-78
2023/08/07 01:35:18;;;;;;;1.90;1.38;;;;;;;11.82;85.09;96430.09;4842758;29;20060;-78
2023/08/07 01:37:48;;;;;;;4.85;1.80;;;;;;;11.82;85.43;96430.91;4842594;29;20057;-78
2023/08/07 01:40:18;;;;;;;3.55;1.60;;;;;;;11.82;85.04;96424.88;4842482;29;20558;-79
2023/08/07 01:42:47;;;;;;;5.30;1.80;;;;;;;11.81;84.59;96429.31;4842200;29;20092;-78
2023/08/07 01:45:14;;;;;;;2.55;1.13;;;;;;;11.80;84.82;96427.66;4842273;29;20057;-78
2023/08/07 01:47:42;;;;;;;4.57;1.60;;;;;;;11.82;84.81;96427.47;4842376;29;20095;-78
2023/08/07 01:50:10;;;;;;;3.58;1.52;;;;;;;11.86;85.82;96431.34;4842258;29;20061;-78
2023/08/07 01:52:37;;;;;;;2.17;1.42;;;;;;;11.88;84.98;96440.63;4842392;29;20061;-78
2023/08/07 01:55:07;;;;;;;4.40;1.65;;;;;;;11.89;85.20;96437.00;4842281;29;20150;-78
2023/08/07 01:57:34;;;;;;;5.50;1.70;;;;;;;11.92;84.63;96441.84;4842300;29;20061;-78
2023/08/07 02:00:03;;;;;;;3.50;1.55;;;;;;;11.91;85.12;96435.00;4842030;29;20054;-79
2023/08/07 02:02:31;;;;;;;3.42;1.70;;;;;;;11.93;85.61;96442.66;4842139;29;20058;-78
2023/08/07 02:04:58;;;;;;;4.43;1.70;;;;;;;11.98;85.86;96447.28;4842037;29;20050;-78
2023/08/07 02:07:27;;;;;;;3.60;1.95;;;;;;;11.94;84.02;96431.22;4841988;29;20064;-79
2023/08/07 02:09:55;;;;;;;4.72;1.85;;;;;;;11.89;84.96;96429.16;4841615;29;20722;-79
2023/08/07 02:12:24;;;;;;;4.05;1.63;;;;;;;11.87;82.99;96428.53;4841840;29;20601;-78
2023/08/07 02:14:52;;;;;;;3.38;2.10;;;;;;;11.86;84.31;96432.13;4841948;29;20056;-78
2023/08/07 02:17:21;;;;;;;1.85;1.73;;;;;;;11.85;83.27;96433.16;4841837;29;20504;-78
2023/08/07 02:19:49;;;;;;;3.08;1.70;;;;;;;11.84;84.38;96441.97;4841847;29;20343;-79
2023/08/07 02:22:17;;;;;;;1.40;1.30;;;;;;;11.82;83.78;96438.75;4841486;29;20574;-79
2023/08/07 02:24:44;;;;;;;1.65;1.20;;;;;;;11.81;83.49;96437.13;4841744;29;20592;-79
2023/08/07 02:27:12;;;;;;;5.00;1.58;;;;;;;11.85;84.52;96440.16;4843712;29;20512;-79
2023/08/07 02:29:41;;;;;;;6.10;1.83;;;;;;;11.83;82.88;96442.97;4854165;29;20061;-79
2023/08/07 02:32:08;;;;;;;3.17;1.50;;;;;;;11.79;83.28;96443.56;4841412;29;20500;-79
2023/08/07 02:34:36;;;;;;;2.65;1.60;;;;;;;11.78;83.85;96440.13;4841546;29;20056;-79
2023/08/07 02:37:04;;;;;;;3.63;1.75;;;;;;;11.81;84.10;96447.59;4841722;29;20066;-79
2023/08/07 02:39:32;;;;;;;5.03;1.70;;;;;;;11.83;83.39;96444.75;4841725;29;20474;-79
2023/08/07 02:42:00;;;;;;;2.08;1.58;;;;;;;11.83;83.00;96453.44;4841498;29;20064;-79
2023/08/07 02:44:28;;;;;;;2.80;1.63;;;;;;;11.82;82.41;96451.81;4841665;29;20111;-79
2023/08/07 02:46:57;;;;;;;2.33;1.85;;;;;;;11.80;81.76;96451.19;4841643;29;20139;-79
2023/08/07 02:49:25;;;;;;;3.72;1.77;;;;;;;11.78;82.46;96450.56;4842842;29;20050;-79
2023/08/07 02:51:52;;;;;;;2.88;1.73;;;;;;;11.72;81.47;96452.16;4859704;29;20069;-81
2023/08/07 02:54:20;;;;;;;3.13;1.42;;;;;;;11.65;82.51;96460.94;4861319;29;20189;-80
2023/08/07 02:56:48;;;;;;;4.28;1.27;;;;;;;11.61;82.74;96460.53;4862528;29;20084;-80
2023/08/07 02:59:16;;;;;;;1.65;1.48;;;;;;;11.63;83.61;96462.94;4861774;29;20507;-79
2023/08/07 03:01:44;;;;;;;5.65;1.95;;;;;;;11.64;83.73;96461.97;4863002;29;20078;-77
2023/08/07 03:04:13;;;;;;;4.70;1.83;;;;;;;11.64;82.50;96473.22;4863413;29;20148;-80
2023/08/07 03:06:41;;;;;;;4.55;1.95;;;;;;;11.63;83.56;96460.34;4862963;29;20488;-80
2023/08/07 03:09:09;;;;;;;3.65;1.90;;;;;;;11.63;83.06;96462.94;4862947;29;20101;-80
2023/08/07 03:11:36;;;;;;;3.47;1.70;;;;;;;11.61;82.47;96459.72;4860820;29;20405;-79
2023/08/07 03:14:04;;;;;;;5.90;2.28;;;;;;;11.57;83.23;96458.47;4860499;29;20074;-80
2023/08/07 03:16:31;;;;;;;4.93;1.50;;;;;;;11.56;82.57;96468.13;4861545;29;20625;-80
2023/08/07 03:18:59;;;;;;;5.78;1.60;;;;;;;11.54;82.86;96475.34;4860805;29;20056;-80
2023/08/07 03:21:28;;;;;;;3.22;1.50;;;;;;;11.54;82.54;96476.19;4861101;29;20105;-79
2023/08/07 03:23:55;;;;;;;4.97;1.83;;;;;;;11.53;84.01;96474.53;4883682;29;20053;-80
2023/08/07 03:26:23;;;;;;;5.18;1.95;;;;;;;11.53;82.95;96474.53;4884922;29;20101;-80
2023/08/07 03:28:51;;;;;;;2.67;1.67;;;;;;;11.52;83.23;96482.56;4885953;29;20064;-80
2023/08/07 03:31:18;;;;;;;3.47;2.30;;;;;;;11.55;84.37;96488.22;4885365;29;20054;-80
2023/08/07 03:33:46;;;;;;;4.15;1.60;;;;;;;11.57;82.58;96489.81;4885233;29;20090;-80
2023/08/07 03:36:14;;;;;;;2.78;1.35;;;;;;;11.53;82.01;96494.66;4881964;29;20053;-80
2023/08/07 03:38:43;;;;;;;2.05;1.20;;;;;;;11.52;81.85;96496.47;4866454;29;20046;-81
2023/08/07 03:41:10;;;;;;;4.97;1.88;;;;;;;11.50;81.91;96497.63;4864259;29;20049;-80
2023/08/07 03:43:38;;;;;;;4.53;1.80;;;;;;;11.51;81.80;96500.06;4863785;29;20057;-80
2023/08/07 03:46:05;;;;;;;3.85;1.90;;;;;;;11.52;81.59;96509.53;4863634;29;20049;-80
2023/08/07 03:48:33;;;;;;;3.08;1.58;;;;;;;11.51;81.15;96507.88;4864395;29;20065;-80
2023/08/07 03:51:04;;;;;;;3.00;1.67;;;;;;;11.51;82.04;96512.31;4863085;29;20079;-79
2023/08/07 03:53:32;;;;;;;4.30;1.77;;;;;;;11.54;82.87;96522.38;4863430;29;20053;-79
2023/08/07 03:56:01;;;;;;;3.78;1.42;;;;;;;11.53;81.53;96516.34;4863372;29;20084;-80
2023/08/07 03:58:29;;;;;;;4.72;1.67;;;;;;;11.51;81.99;96517.53;4863262;29;20057;-80
2023/08/07 04:00:56;;;;;;;3.47;1.77;;;;;;;11.50;81.79;96516.72;4863141;29;20053;-80
2023/08/07 04:03:24;;;;;;;5.07;1.90;;;;;;;11.54;83.66;96517.16;4863147;29;20057;-80
2023/08/07 04:05:54;;;;;;;4.22;1.88;;;;;;;11.57;82.47;96518.56;4862944;29;20408;-80
2023/08/07 04:08:21;;;;;;;3.65;1.55;;;;;;;11.59;81.73;96525.25;4856449;29;20084;-80
2023/08/07 04:10:58;;;;;;;3.25;1.80;;;;;;;11.57;80.79;96515.94;4849716;29;20132;-80
2023/08/07 04:13:28;;;;;;;3.58;2.00;;;;;;;11.59;81.20;96513.97;4863445;29;20086;-80
2023/08/07 04:15:56;;;;;;;3.50;1.83;;;;;;;11.60;83.12;96515.59;4855874;29;20057;-80
2023/08/07 04:18:24;;;;;;;1.83;1.35;;;;;;;11.62;81.81;96518.81;4849898;29;20439;-80
2023/08/07 04:20:53;;;;;;;2.50;1.60;;;;;;;11.58;81.63;96528.03;4863273;29;20057;-80
2023/08/07 04:23:21;;;;;;;2.72;1.75;;;;;;;11.55;81.52;96524.81;4862724;29;20056;-79
2023/08/07 04:25:49;;;;;;;4.10;1.35;;;;;;;11.54;81.05;96519.75;4861917;29;20049;-80
2023/08/07 04:28:17;;;;;;;4.32;1.98;;;;;;;11.53;81.50;96518.97;4845739;29;20076;-80
2023/08/07 04:30:50;;;;;;;4.20;2.08;;;;;;;11.52;80.39;96519.97;4845538;29;20106;-79
2023/08/07 04:33:18;;;;;;;2.85;2.00;;;;;;;11.51;80.86;96523.56;4843755;29;20057;-80
2023/08/07 04:35:46;;;;;;;3.17;1.85;;;;;;;11.52;80.41;96519.97;4861980;29;20050;-80
2023/08/07 04:38:14;;;;;;;6.40;2.58;;;;;;;11.52;81.07;96524.38;4854006;29;20430;-80
2023/08/07 04:40:46;;;;;;;6.70;2.00;;;;;;;11.51;81.12;96523.56;4854565;29;20135;-80
2023/08/07 04:43:14;;;;;;;2.35;1.65;;;;;;;11.52;81.09;96530.41;4844147;29;20054;-80
2023/08/07 04:45:42;;;;;;;3.22;1.67;;;;;;;11.53;80.70;96526.00;4847204;29;20099;-80
2023/08/07 04:48:11;;;;;;;2.92;1.80;;;;;;;11.49;80.48;96532.59;4855760;29;20097;-79
2023/08/07 04:50:39;;;;;;;6.10;1.90;;;;;;;11.50;81.28;96532.41;4853119;29;20126;-80
2023/08/07 04:53:07;;;;;;;7.40;2.00;;;;;;;11.49;80.65;96535.19;4844510;29;20061;-80
2023/08/07 04:55:34;;;;;;;4.45;1.98;;;;;;;11.52;81.79;96538.25;4860373;29;20052;-80
2023/08/07 04:58:02;;;;;;;5.68;1.95;;;;;;;11.54;81.82;96541.50;4850779;29;20097;-80
2023/08/07 05:00:30;;;;;;;4.03;1.92;;;;;;;11.58;81.24;96546.31;4856424;29;20086;-80
2023/08/07 05:02:58;;;;;;;10.25;5.45;;;;;;;11.59;81.53;96555.75;4858955;29;20053;-80
2023/08/07 05:05:28;;;;;;;10.10;6.03;;;;;;;11.58;82.22;96556.78;4846040;29;20054;-79
2023/08/07 05:07:57;;;;;;;5.70;2.22;;;;;;;11.59;81.98;96555.75;4845470;29;20058;-80
2023/08/07 05:10:25;;;;;;;5.00;2.13;;;;;;;11.59;82.59;96555.75;4842939;29;20111;-80
2023/08/07 05:12:55;;;;;;;3.13;1.73;;;;;;;11.55;81.38;96556.16;4854966;29;20092;-80
2023/08/07 05:15:23;;;;;;;4.10;1.52;;;;;;;11.51;82.21;96554.09;4849624;29;20057;-80
2023/08/07 05:17:51;;;;;;;4.65;2.15;;;;;;;11.51;82.69;96560.13;4852682;29;20064;-79
2023/08/07 05:20:19;;;;;;;5.30;1.90;;;;;;;11.51;82.96;96539.22;4861309;29;20056;-79
2023/08/07 05:22:48;;;;;;;4.00;1.88;;;;;;;11.53;83.86;96552.13;4861215;29;20053;-76
2023/08/07 05:25:16;;;;;;;2.45;1.70;;;;;;;11.55;84.25;96560.56;4861333;29;20041;-75
2023/08/07 05:27:45;;;;;;;4.35;1.77;;;;;;;11.55;83.75;96560.56;4873441;29;20073;-76
2023/08/07 05:30:13;;;;;;;4.95;2.03;;;;;;;11.54;83.96;96570.22;4873323;29;20057;-76
2023/08/07 05:32:41;;;;;;;3.67;1.70;;;;;;;11.58;84.12;96575.84;4876578;29;20145;-76
2023/08/07 05:35:10;;;;;;;7.68;3.05;;;;;;;11.61;83.59;96570.28;4861814;29;20086;-76
2023/08/07 05:37:37;;;;;;;3.65;2.30;;;;;;;11.62;84.57;96576.31;4855265;29;20111;-78
2023/08/07 05:40:08;;;;;;;4.65;2.20;;;;;;;11.61;85.30;96578.13;4860734;29;20061;-78
2023/08/07 05:42:35;;;;;;;2.50;1.52;;;;;;;11.63;84.53;96576.13;4861489;29;20567;-77
2023/08/07 05:45:03;;;;;;;6.47;2.35;;;;;;;11.63;83.65;96573.50;4861266;29;20053;-77
2023/08/07 05:47:33;;;;;;;7.40;2.45;;;;;;;11.64;83.59;96590.00;4861157;29;20060;-78
2023/08/07 05:50:01;;;;;;;4.93;2.15;;;;;;;11.65;84.33;96586.38;4861499;29;20056;-77
2023/08/07 05:52:29;;;;;;;6.20;1.73;;;;;;;11.68;84.73;96578.16;4860972;29;20057;-77
2023/08/07 05:54:56;;;;;;;2.97;1.98;;;;;;;11.72;85.63;96587.25;4861546;29;20119;-78
2023/08/07 05:57:25;;;;;;;4.75;1.70;;;;;;;11.74;84.87;96586.06;4860895;29;20049;-77
2023/08/07 05:59:53;;;;;;;3.13;1.67;;;;;;;11.75;84.03;96592.09;4860789;29;20053;-77
2023/08/07 06:02:21;;;;;;;3.92;2.10;;;;;;;11.73;83.97;96589.66;4860450;29;20519;-77
2023/08/07 06:04:48;;;;;;;8.18;1.75;;;;;;;11.74;84.15;96590.44;4860778;29;20080;-78
2023/08/07 06:07:16;;;;;;;3.67;2.20;;;;;;;11.79;84.81;96609.00;4860711;29;20049;-78
2023/08/07 06:09:44;;;;;;;7.07;2.30;;;;;;;11.80;84.24;96594.94;4860901;29;20117;-78
2023/08/07 06:12:12;;;;;;;4.00;1.85;;;;;;;11.78;83.02;96598.72;4860223;29;20530;-77
2023/08/07 06:14:41;;;;;;;5.63;1.38;;;;;;;11.73;81.96;96594.88;4860473;29;20053;-77
2023/08/07 06:17:08;;;;;;;5.03;2.83;;;;;;;11.71;81.85;96596.88;4860198;29;20439;-78
2023/08/07 06:19:36;;;;;;;4.88;2.05;;;;;;;11.71;82.15;96596.88;4860389;29;20496;-77
2023/08/07 06:22:04;;;;;;;3.88;2.00;;;;;;;11.73;82.51;96609.75;4860142;29;20054;-78
2023/08/07 06:24:31;;;;;;;3.53;1.60;;;;;;;11.73;81.62;96604.53;4860555;29;20053;-77
2023/08/07 06:26:59;;;;;;;3.97;1.73;;;;;;;11.75;83.06;96608.56;4860273;29;20049;-77
2023/08/07 06:29:27;;;;;;;2.65;1.83;;;;;;;11.84;84.81;96611.06;4860594;29;20065;-77
2023/08/07 06:31:56;;;;;;;2.85;1.73;;;;;;;11.91;83.94;96617.97;4860100;29;20069;-77
2023/08/07 06:34:24;;;;;;;5.60;1.70;;;;;;;11.94;82.40;96614.97;4860407;29;20049;-77
2023/08/07 06:36:51;;;;;;;4.07;1.52;;;;;;;11.97;81.55;96626.06;4859957;29;20054;-77
2023/08/07 06:39:19;;;;;;;2.65;1.70;;;;;;;11.99;82.79;96618.84;4860578;29;20102;-77
2023/08/07 06:41:47;;;;;;;3.03;1.60;;;;;;;12.00;82.49;96620.44;4873159;29;20113;-77
2023/08/07 06:44:14;;;;;;;3.30;1.65;;;;;;;11.98;81.42;96622.44;4859998;29;20136;-77
2023/08/07 06:46:42;;;;;;;3.10;2.28;;;;;;;11.97;81.22;96626.06;4860349;29;20089;-78
2023/08/07 06:49:11;;;;;;;4.68;2.13;;;;;;;11.94;80.76;96625.44;4860249;29;20480;-77
2023/08/07 06:51:38;;;;;;;4.03;1.70;;;;;;;11.96;81.00;96630.50;4859718;29;20109;-78
2023/08/07 06:54:06;;;;;;;3.95;1.70;;;;;;;11.98;80.83;96630.28;4859984;29;20057;-78
2023/08/07 06:56:33;;;;;;;5.32;1.50;;;;;;;12.00;80.85;96628.28;4863897;29;20105;-77
2023/08/07 06:59:01;;;;;;;4.30;2.00;;;;;;;12.04;80.84;96621.69;4865889;29;20126;-77
2023/08/07 07:01:29;;;;;;;3.35;1.67;;;;;;;12.07;81.38;96629.97;4865389;29;20530;-78
2023/08/07 07:03:56;;;;;;;4.22;1.73;;;;;;;12.10;81.31;96636.63;4866057;29;20438;-77
2023/08/07 07:06:26;;;;;;;3.05;1.77;;;;;;;12.09;80.16;96642.81;4865928;29;20081;-77
2023/08/07 07:08:54;;;;;;;3.08;1.67;;;;;;;12.11;81.23;96640.84;4865970;29;20049;-77
2023/08/07 07:11:24;;;;;;;6.35;2.50;;;;;;;12.16;81.16;96635.88;4865871;29;20523;-77
2023/08/07 07:13:52;;;;;;;5.07;1.92;;;;;;;12.23;80.84;96649.78;4866171;29;20519;-78
2023/08/07 07:16:21;;;;;;;3.00;1.63;;;;;;;12.27;80.27;96640.56;4866182;29;20555;-77
2023/08/07 07:18:50;;;;;;;4.93;1.95;;;;;;;12.28;79.93;96649.22;4865797;29;20417;-77
2023/08/07 07:21:18;;;;;;;4.82;1.83;;;;;;;12.31;81.26;96638.34;4865738;29;20049;-78
2023/08/07 07:23:47;;;;;;;5.10;2.00;;;;;;;12.36;80.06;96646.44;4865653;29;20133;-78
2023/08/07 07:26:14;;;;;;;3.75;1.67;;;;;;;12.40;80.58;96652.09;4865851;29;20081;-78
2023/08/07 07:28:42;;;;;;;6.25;2.30;;;;;;;12.44;79.52;96642.84;4865876;29;20321;-77
2023/08/07 07:31:11;;;;;;;3.22;1.65;;;;;;;12.48;79.22;96641.47;4865389;29;20512;-77
2023/08/07 07:33:41;;;;;;;5.80;2.15;;;;;;;12.55;79.51;96648.38;4866082;29;20113;-77
2023/08/07 07:36:15;;;;;;;4.03;2.03;;;;;;;12.63;79.67;96643.97;4865849;29;20469;-78
2023/08/07 07:38:46;;;;;;;3.17;1.50;;;;;;;12.65;78.01;96658.50;4865699;29;20416;-77
2023/08/07 07:41:15;;;;;;;3.65;1.67;;;;;;;12.67;78.24;96663.53;4865530;29;20053;-77
2023/08/07 07:43:43;;;;;;;3.88;1.80;;;;;;;12.71;77.98;96660.34;4865513;29;20082;-78
2023/08/07 07:46:11;;;;;;;4.00;1.77;;;;;;;12.78;77.63;96668.22;4865572;29;20439;-78
2023/08/07 07:48:38;;;;;;;6.43;1.90;;;;;;;12.84;77.32;96656.97;4865705;29;20045;-78
2023/08/07 07:51:06;;;;;;;3.88;1.80;;;;;;;12.93;78.73;96665.47;4865247;29;20053;-77
2023/08/07 07:53:34;;;;;;;3.28;1.58;;;;;;;13.02;78.30;96666.91;4865755;29;20110;-78
2023/08/07 07:56:01;;;;;;;3.90;2.08;;;;;;;13.07;77.95;96659.28;4865725;29;20079;-77
2023/08/07 07:58:30;;;;;;;5.85;1.70;;;;;;;13.13;76.61;96668.97;4865465;29;20053;-77
2023/08/07 08:00:58;;;;;;;4.43;1.83;;;;;;;13.19;77.73;96657.72;4865075;29;20049;-77
2023/08/07 08:03:25;;;;;;;2.67;1.80;;;;;;;13.25;77.82;96671.03;4865615;29;20144;-77
2023/08/07 08:05:54;;;;;;;3.25;1.80;;;;;;;13.26;77.13;96670.84;4865656;29;20060;-77
2023/08/07 08:08:21;;;;;;;5.63;1.73;;;;;;;13.23;74.61;96679.09;4862633;29;20416;-77
2023/08/07 08:10:51;;;;;;;5.60;1.38;;;;;;;13.21;74.15;96681.09;4862167;29;20073;-77
2023/08/07 08:13:18;;;;;;;2.78;1.20;;;;;;;13.20;74.60;96685.50;4862223;29;20114;-77
2023/08/07 08:15:48;;;;;;;1.95;1.00;;;;;;;13.21;75.32;96681.09;4862369;29;20053;-77
2023/08/07 08:18:15;;;;;;;3.92;1.17;;;;;;;13.19;73.71;96694.38;4881224;23;20064;-89
2023/08/07 08:20:43;;;;;;;2.30;1.20;;;;;;;13.17;72.30;96706.06;4886689;29;20057;-90
2023/08/07 08:23:11;;;;;;;4.97;1.75;;;;;;;13.11;71.15;96694.56;4888237;29;20057;-89
2023/08/07 08:25:39;;;;;;;3.45;1.35;;;;;;;13.04;71.21;96712.06;4887225;29;20076;-88
2023/08/07 08:28:06;;;;;;;3.85;1.98;;;;;;;13.07;73.01;96709.03;4888943;29;20049;-90
2023/08/07 08:30:34;;;;;;;1.95;1.15;;;;;;;13.12;72.18;96714.50;4886899;29;20128;-90
2023/08/07 08:33:05;;;;;;;4.35;1.65;;;;;;;13.12;70.46;96719.75;4886782;29;20415;-90
2023/08/07 08:35:33;;;;;;;2.92;1.23;;;;;;;13.12;70.86;96717.13;4888273;29;20077;-89
2023/08/07 08:38:01;;;;;;;4.53;1.20;;;;;;;13.13;72.01;96715.31;4887148;29;20064;-88
2023/08/07 08:40:29;;;;;;;4.88;1.65;;;;;;;13.13;70.45;96723.97;4886770;29;20135;-89
2023/08/07 08:42:57;;;;;;;2.72;1.10;;;;;;;13.15;69.87;96721.97;4888375;29;20057;-88
2023/08/07 08:45:27;;;;;;;4.30;1.38;;;;;;;13.16;69.31;96735.88;4887968;29;20053;-89
2023/08/07 08:47:58;;;;;;;3.50;1.17;;;;;;;13.16;68.75;96746.34;4886748;29;20108;-87
2023/08/07 08:50:29;;;;;;;3.22;1.48;;;;;;;13.13;68.92;96731.84;4887146;29;20064;-91
2023/08/07 08:52:57;;;;;;;4.82;1.35;;;;;;;13.11;68.75;96733.03;4886179;29;20049;-88
2023/08/07 08:55:27;;;;;;;4.00;1.60;;;;;;;13.10;68.75;96744.53;4886999;29;20064;-89
2023/08/07 08:57:55;;;;;;;4.47;1.50;;;;;;;13.10;69.33;96742.72;4886869;29;20049;-89
2023/08/07 09:00:25;;;;;;;2.65;1.27;;;;;;;13.10;70.22;96737.47;4886949;29;20053;-89
2023/08/07 09:02:53;;;;;;;7.57;1.63;;;;;;;13.13;69.48;96731.03;4887377;29;20057;-88
2023/08/07 09:05:21;;;;;;;3.75;1.38;;;;;;;13.17;71.61;96738.31;4886749;29;20053;-89
2023/08/07 09:07:51;;;;;;;4.00;1.55;;;;;;;13.16;69.70;96752.41;4886858;29;20526;-88
2023/08/07 09:10:19;;;;;;;5.43;1.58;;;;;;;13.16;71.14;96746.34;4886348;29;20057;-87
2023/08/07 09:12:55;;;;;;;4.18;1.70;;;;;;;13.16;70.38;96741.94;4886562;29;20112;-88
2023/08/07 09:15:24;;;;;;;1.90;1.35;;;;;;;13.18;70.98;96744.34;4887095;29;20057;-87
2023/08/07 09:17:55;;;;;;;2.15;1.38;;;;;;;13.21;71.14;96746.59;4885732;29;20464;-88
2023/08/07 09:20:23;;;;;;;2.97;1.40;;;;;;;13.29;71.21;96740.41;4884404;29;20049;-88
2023/08/07 09:22:52;;;;;;;3.92;1.25;;;;;;;13.34;71.49;96738.81;4886111;29;20048;-88
2023/08/07 09:25:28;;;;;;;3.00;0.98;;;;;;;13.43;71.47;96742.06;4886731;29;20053;-86
2023/08/07 09:27:56;;;;;;;2.00;1.10;;;;;;;13.51;71.12;96744.53;4886035;29;20056;-89
2023/08/07 09:30:28;;;;;;;2.97;1.52;;;;;;;13.65;73.34;96749.81;4886441;29;20546;-86
2023/08/07 09:32:57;;;;;;;2.80;2.00;;;;;;;13.72;68.80;96750.63;4886900;29;20142;-88
2023/08/07 09:35:25;;;;;;;1.90;1.20;;;;;;;13.74;68.55;96752.03;4887219;29;20053;-86
2023/08/07 09:37:54;;;;;;;1.42;1.08;;;;;;;13.80;70.14;96760.94;4886863;29;20044;-86
2023/08/07 09:40:23;;;;;;;2.75;1.10;;;;;;;13.83;68.45;96767.59;4888011;29;20113;-88
2023/08/07 09:42:52;;;;;;;2.28;1.42;;;;;;;13.80;67.08;96764.38;4887707;29;20507;-87
2023/08/07 09:45:21;;;;;;;4.65;1.17;;;;;;;13.82;68.16;96777.28;4886359;29;20118;-85
2023/08/07 09:47:58;;;;;;;1.05;0.93;;;;;;;13.85;66.46;96774.25;4887037;29;20052;-86
2023/08/07 09:50:26;;;;;;;1.92;1.10;;;;;;;13.84;66.40;96777.91;4888130;29;20056;-83
2023/08/07 09:52:57;;;;;;;5.63;1.40;;;;;;;13.85;65.32;96776.88;4886972;29;20132;-88
2023/08/07 09:55:26;;;;;;;1.85;1.30;;;;;;;13.88;66.27;96776.47;4887240;29;20489;-87
2023/08/07 09:57:54;;;;;;;4.60;1.10;;;;;;;13.91;66.63;96770.84;4887271;29;20053;-84
2023/08/07 10:00:22;;;;;;;2.47;1.35;;;;;;;13.94;65.98;96770.44;4887063;29;20053;-84
2023/08/07 10:02:51;;;;;;;2.05;0.93;;;;;;;13.98;66.16;96778.72;4886791;29;20052;-87
2023/08/07 10:05:19;;;;;;;3.50;1.10;;;;;;;14.05;66.91;96769.06;4886624;29;20049;-88
2023/08/07 10:07:49;;;;;;;3.05;1.27;;;;;;;14.09;65.94;96767.66;4886176;29;20057;-85
2023/08/07 10:10:18;;;;;;;4.32;1.30;;;;;;;14.12;65.38;96766.44;4888034;29;20056;-87
2023/08/07 10:12:47;;;;;;;3.20;0.90;;;;;;;14.11;66.94;96778.75;4888233;29;20069;-86
2023/08/07 10:15:16;;;;;;;1.70;1.08;;;;;;;14.06;65.87;96788.22;4889043;29;20056;-88
2023/08/07 10:17:44;;;;;;;1.60;1.10;;;;;;;13.97;66.08;96783.19;4887814;29;20131;-86
2023/08/07 10:20:12;;;;;;;2.92;1.13;;;;;;;13.93;65.17;96776.72;4887739;29;20507;-88
2023/08/07 10:22:43;;;;;;;2.58;0.90;;;;;;;13.92;66.60;96772.44;4886011;29;20057;-85
2023/08/07 10:25:11;;;;;;;2.33;1.15;;;;;;;13.93;65.14;96779.34;4887046;29;20049;-87
2023/08/07 10:27:43;;;;;;;2.20;1.05;;;;;;;13.96;66.80;96778.91;4886358;29;20531;-87
2023/08/07 10:30:15;;;;;;;4.50;1.55;;;;;;;13.99;64.10;96777.72;4886765;29;20477;-88
2023/08/07 10:32:44;;;;;;;1.77;0.95;;;;;;;14.07;65.44;96774.91;4886133;29;20446;-88
2023/08/07 10:35:24;;;;;;;3.35;1.15;;;;;;;14.21;63.44;96773.09;4886493;29;20064;-86
2023/08/07 10:37:54;;;;;;;3.20;1.05;;;;;;;14.41;63.21;96770.53;4886884;29;20108;-89
2023/08/07 10:40:22;;;;;;;6.00;1.35;;;;;;;14.63;63.46;96768.53;4886923;29;20560;-86
2023/08/07 10:42:57;;;;;;;1.60;0.88;;;;;;;14.75;62.63;96777.38;4887182;29;20057;-88
2023/08/07 10:45:26;;;;;;;1.42;1.00;;;;;;;14.74;61.64;96762.66;4886978;29;20065;-85
2023/08/07 10:48:06;;;;;;;2.30;0.75;;;;;;;14.73;62.55;96761.03;4886203;29;20090;-87
2023/08/07 10:50:35;;;;;;;3.53;1.15;;;;;;;14.74;61.91;96778.41;4887054;29;20511;-84
2023/08/07 10:53:04;;;;;;;3.25;1.20;;;;;;;14.69;61.80;96766.88;4887174;29;20105;-87
2023/08/07 10:55:44;;;;;;;2.92;0.90;;;;;;;14.63;61.53;96758.81;4886361;29;20049;-86
2023/08/07 10:58:24;;;;;;;2.10;1.00;;;;;;;14.60;62.97;96769.72;4885948;29;20067;-84
2023/08/07 11:00:53;;;;;;;2.25;1.00;;;;;;;14.70;62.51;96764.06;4885265;29;20069;-88
2023/08/07 11:03:26;;;;;;;3.83;1.20;;;;;;;14.91;62.91;96770.09;4885448;29;20060;-86
2023/08/07 11:05:54;;;;;;;1.98;1.25;;;;;;;15.09;60.83;96772.91;4886589;29;20049;-86
2023/08/07 11:08:24;;;;;;;2.50;1.10;;;;;;;15.27;60.38;96772.25;4888411;29;20065;-88
2023/08/07 11:10:52;;;;;;;2.00;0.90;;;;;;;15.47;59.50;96769.53;4888336;29;20468;-87
2023/08/07 11:13:20;;;;;;;2.42;0.93;;;;;;;15.57;58.43;96769.09;4888370;29;20105;-86
2023/08/07 11:15:50;;;;;;;1.30;0.80;;;;;;;15.60;58.05;96772.09;4887619;29;20049;-86
2023/08/07 11:18:19;;;;;;;2.60;1.15;;;;;;;15.65;60.83;96769.69;4887077;29;20045;-91
2023/08/07 11:20:47;;;;;;;2.53;1.05;;;;;;;15.66;58.03;96762.59;4887340;29;20053;-87
2023/08/07 11:23:15;;;;;;;4.75;1.00;;;;;;;15.68;57.50;96770.25;4887106;29;20110;-89
2023/08/07 11:25:43;;;;;;;1.33;0.70;;;;;;;15.73;58.92;96767.84;4886488;29;20081;-86
2023/08/07 11:28:11;;;;;;;2.35;1.00;;;;;;;15.74;56.94;96780.78;4889658;29;20053;-88
2023/08/07 11:30:38;;;;;;;3.45;1.75;;;;;;;15.73;57.49;96771.28;4890211;29;20077;-90
2023/08/07 11:33:08;;;;;;;1.90;1.10;;;;;;;15.77;56.28;96779.56;4889632;29;20057;-88
2023/08/07 11:35:36;;;;;;;2.97;0.90;;;;;;;15.84;56.29;96775.88;4889592;29;20090;-88
2023/08/07 11:38:04;;;;;;;1.50;0.85;;;;;;;15.93;55.27;96755.38;4888967;29;20055;-85
2023/08/07 11:40:31;;;;;;;2.10;1.30;;;;;;;16.03;55.04;96768.09;4888880;29;20053;-89